BAW134 EGLL-EGJB
Flight info
| Callsign | BAW134 |
|---|---|
| Flight time | 0h 36m |
| Altitude | 23000 |
| Route | GASGU N866 SAM/N0392F220 N63 LELNA |
| Aircraft | A319/M-SDE3FGHIRWY/LB1 |
Departure
| Time | 2026-04-21 18:09 |
|---|---|
| Airport | London Heathrow Airport (EGLL) |
Arrival
| Time | 2026-04-21 18:46 |
|---|---|
| Airport | Guernsey Airport (EGJB) |
| Time | Latitude | Longitude | Altitude | Speed | Heading |
|---|---|---|---|---|---|
| 2026-04-21 17:51 | 51.47271 | -0.48583 | 88 ft | 0 kts | 270° |
| 2026-04-21 18:02 | 51.47271 | -0.48568 | 85 ft | 3 kts | 270° |
| 2026-04-21 18:02 | 51.47271 | -0.48538 | 86 ft | 3 kts | 270° |
| 2026-04-21 18:02 | 51.47272 | -0.48508 | 88 ft | 2 kts | 289° |
| 2026-04-21 18:02 | 51.47272 | -0.48483 | 87 ft | 2 kts | 209° |
| 2026-04-21 18:03 | 51.47279 | -0.48477 | 90 ft | 0 kts | 179° |
| 2026-04-21 18:03 | 51.47277 | -0.48477 | 87 ft | 0 kts | 179° |
| 2026-04-21 18:03 | 51.47273 | -0.48477 | 87 ft | 1 kts | 179° |
| 2026-04-21 18:04 | 51.47272 | -0.48477 | 87 ft | 0 kts | 179° |
| 2026-04-21 18:04 | 51.47268 | -0.48477 | 88 ft | 4 kts | 179° |
| 2026-04-21 18:04 | 51.47197 | -0.48476 | 85 ft | 15 kts | 180° |
| 2026-04-21 18:04 | 51.47079 | -0.48473 | 85 ft | 19 kts | 179° |
| 2026-04-21 18:05 | 51.46943 | -0.48471 | 85 ft | 21 kts | 179° |
| 2026-04-21 18:05 | 51.46826 | -0.48469 | 85 ft | 7 kts | 180° |
| 2026-04-21 18:05 | 51.46765 | -0.48470 | 85 ft | 12 kts | 181° |
| 2026-04-21 18:05 | 51.46673 | -0.48485 | 87 ft | 14 kts | 213° |
| 2026-04-21 18:06 | 51.46652 | -0.48603 | 88 ft | 7 kts | 268° |
| 2026-04-21 18:06 | 51.46646 | -0.48709 | 89 ft | 12 kts | 255° |
| 2026-04-21 18:06 | 51.46591 | -0.48769 | 86 ft | 0 kts | 202° |
| 2026-04-21 18:07 | 51.46550 | -0.48779 | 85 ft | 13 kts | 178° |
| 2026-04-21 18:07 | 51.46486 | -0.48693 | 89 ft | 14 kts | 107° |
| 2026-04-21 18:07 | 51.46479 | -0.48583 | 86 ft | 0 kts | 91° |
| 2026-04-21 18:09 | 51.46480 | -0.48330 | 88 ft | 54 kts | 90° |
| 2026-04-21 18:09 | 51.46484 | -0.47388 | 83 ft | 114 kts | 89° |
| 2026-04-21 18:09 | 51.46487 | -0.46385 | 126 ft | 146 kts | 89° |
| 2026-04-21 18:09 | 51.46491 | -0.44445 | 1354 ft | 119 kts | 86° |
| 2026-04-21 18:10 | 51.46505 | -0.43101 | 2016 ft | 128 kts | 85° |
| 2026-04-21 18:10 | 51.46419 | -0.41544 | 2461 ft | 155 kts | 104° |
| 2026-04-21 18:10 | 51.45796 | -0.39952 | 2873 ft | 183 kts | 120° |
| 2026-04-21 18:10 | 51.45007 | -0.38163 | 3345 ft | 209 kts | 120° |
| 2026-04-21 18:11 | 51.44124 | -0.36134 | 3985 ft | 233 kts | 121° |
| 2026-04-21 18:11 | 51.42996 | -0.34147 | 4969 ft | 249 kts | 139° |
| 2026-04-21 18:11 | 51.41385 | -0.32917 | 5720 ft | 264 kts | 162° |
| 2026-04-21 18:11 | 51.39528 | -0.32885 | 5993 ft | 274 kts | 188° |
| 2026-04-21 18:12 | 51.37792 | -0.34218 | 6432 ft | 286 kts | 216° |
| 2026-04-21 18:12 | 51.36328 | -0.36361 | 7471 ft | 289 kts | 219° |
| 2026-04-21 18:12 | 51.34841 | -0.38529 | 8510 ft | 292 kts | 219° |
| 2026-04-21 18:12 | 51.33323 | -0.40712 | 9526 ft | 297 kts | 219° |
| 2026-04-21 18:13 | 51.31768 | -0.42959 | 10486 ft | 302 kts | 221° |
| 2026-04-21 18:13 | 51.30485 | -0.45653 | 11394 ft | 309 kts | 241° |
| 2026-04-21 18:13 | 51.29715 | -0.48913 | 12112 ft | 323 kts | 253° |
| 2026-04-21 18:13 | 51.29028 | -0.52468 | 12450 ft | 347 kts | 248° |
| 2026-04-21 18:14 | 51.26442 | -0.59297 | 13793 ft | 364 kts | 237° |
| 2026-04-21 18:14 | 51.25074 | -0.62676 | 14634 ft | 366 kts | 237° |
| 2026-04-21 18:14 | 51.23680 | -0.66107 | 15099 ft | 369 kts | 237° |
| 2026-04-21 18:15 | 51.22279 | -0.69542 | 15237 ft | 368 kts | 237° |
| 2026-04-21 18:15 | 51.20889 | -0.72950 | 15711 ft | 370 kts | 237° |
| 2026-04-21 18:15 | 51.19485 | -0.76393 | 16473 ft | 372 kts | 238° |
| 2026-04-21 18:15 | 51.18073 | -0.79856 | 17219 ft | 375 kts | 238° |
| 2026-04-21 18:16 | 51.16646 | -0.83355 | 18041 ft | 376 kts | 238° |
| 2026-04-21 18:16 | 51.15249 | -0.86772 | 18794 ft | 377 kts | 240° |
| 2026-04-21 18:16 | 51.13775 | -0.90375 | 19514 ft | 379 kts | 240° |
| 2026-04-21 18:16 | 51.12342 | -0.93870 | 20204 ft | 380 kts | 240° |
| 2026-04-21 18:17 | 51.10889 | -0.97407 | 20922 ft | 382 kts | 241° |
| 2026-04-21 18:17 | 51.09434 | -1.00940 | 21621 ft | 383 kts | 242° |
| 2026-04-21 18:17 | 51.07971 | -1.04494 | 22295 ft | 385 kts | 242° |
| 2026-04-21 18:17 | 51.06490 | -1.08089 | 22954 ft | 388 kts | 243° |
| 2026-04-21 18:18 | 51.05009 | -1.11675 | 23214 ft | 388 kts | 243° |
| 2026-04-21 18:18 | 51.03544 | -1.15211 | 23249 ft | 385 kts | 243° |
| 2026-04-21 18:18 | 51.02064 | -1.18776 | 23250 ft | 384 kts | 243° |
| 2026-04-21 18:18 | 51.00601 | -1.22297 | 23249 ft | 383 kts | 243° |
| 2026-04-21 18:19 | 50.99548 | -1.24875 | 23214 ft | 382 kts | 245° |
| 2026-04-21 18:19 | 50.98305 | -1.28090 | 23234 ft | 383 kts | 244° |
| 2026-04-21 18:19 | 50.96850 | -1.31430 | 23245 ft | 388 kts | 236° |
| 2026-04-21 18:19 | 50.94880 | -1.34455 | 23248 ft | 398 kts | 224° |
| 2026-04-21 18:20 | 50.92528 | -1.36869 | 23247 ft | 406 kts | 214° |
| 2026-04-21 18:20 | 50.90002 | -1.38868 | 23247 ft | 407 kts | 213° |
| 2026-04-21 18:20 | 50.87480 | -1.40883 | 23236 ft | 406 kts | 213° |
| 2026-04-21 18:20 | 50.84955 | -1.42913 | 23221 ft | 406 kts | 212° |
| 2026-04-21 18:21 | 50.82448 | -1.44929 | 23226 ft | 406 kts | 212° |
| 2026-04-21 18:21 | 50.79929 | -1.46944 | 23232 ft | 406 kts | 212° |
| 2026-04-21 18:21 | 50.77385 | -1.48968 | 23232 ft | 406 kts | 212° |
| 2026-04-21 18:21 | 50.74867 | -1.50964 | 23236 ft | 406 kts | 212° |
| 2026-04-21 18:22 | 50.72341 | -1.52964 | 23236 ft | 406 kts | 212° |
| 2026-04-21 18:22 | 50.69824 | -1.54956 | 23239 ft | 406 kts | 212° |
| 2026-04-21 18:22 | 50.67291 | -1.56958 | 23232 ft | 406 kts | 212° |
| 2026-04-21 18:22 | 50.64775 | -1.58944 | 23235 ft | 406 kts | 212° |
| 2026-04-21 18:23 | 50.62256 | -1.60931 | 23213 ft | 406 kts | 212° |
| 2026-04-21 18:23 | 50.59729 | -1.62924 | 23222 ft | 405 kts | 212° |
| 2026-04-21 18:23 | 50.57199 | -1.64919 | 23238 ft | 405 kts | 212° |
| 2026-04-21 18:23 | 50.54672 | -1.66904 | 23241 ft | 405 kts | 212° |
| 2026-04-21 18:24 | 50.52148 | -1.68885 | 23241 ft | 405 kts | 212° |
| 2026-04-21 18:24 | 50.49628 | -1.70859 | 23239 ft | 405 kts | 212° |
| 2026-04-21 18:24 | 50.47107 | -1.72831 | 23235 ft | 405 kts | 212° |
| 2026-04-21 18:24 | 50.44585 | -1.74805 | 23234 ft | 405 kts | 212° |
| 2026-04-21 18:25 | 50.42063 | -1.76780 | 23231 ft | 405 kts | 212° |
| 2026-04-21 18:25 | 50.39536 | -1.78753 | 23217 ft | 405 kts | 212° |
| 2026-04-21 18:25 | 50.37031 | -1.80706 | 23221 ft | 404 kts | 212° |
| 2026-04-21 18:25 | 50.34514 | -1.82668 | 23226 ft | 404 kts | 212° |
| 2026-04-21 18:26 | 50.31983 | -1.84639 | 23208 ft | 404 kts | 212° |
| 2026-04-21 18:26 | 50.29499 | -1.86568 | 23214 ft | 403 kts | 212° |
| 2026-04-21 18:26 | 50.26994 | -1.88512 | 23221 ft | 403 kts | 212° |
| 2026-04-21 18:26 | 50.24459 | -1.90475 | 23222 ft | 402 kts | 212° |
| 2026-04-21 18:27 | 50.21982 | -1.92392 | 23219 ft | 402 kts | 212° |
| 2026-04-21 18:27 | 50.19476 | -1.94331 | 23219 ft | 401 kts | 212° |
| 2026-04-21 18:27 | 50.16980 | -1.96260 | 23205 ft | 401 kts | 211° |
| 2026-04-21 18:27 | 50.14476 | -1.98187 | 23208 ft | 401 kts | 211° |
| 2026-04-21 18:28 | 50.11977 | -2.00107 | 23204 ft | 401 kts | 211° |
| 2026-04-21 18:28 | 50.10316 | -2.01383 | 23202 ft | 401 kts | 211° |
| 2026-04-21 18:28 | 50.07803 | -2.03312 | 23203 ft | 401 kts | 211° |
| 2026-04-21 18:28 | 50.05313 | -2.05225 | 23204 ft | 401 kts | 211° |
| 2026-04-21 18:29 | 50.02813 | -2.07147 | 23192 ft | 401 kts | 211° |
| 2026-04-21 18:29 | 50.00312 | -2.09092 | 23184 ft | 401 kts | 214° |
| 2026-04-21 18:29 | 49.98011 | -2.11496 | 23179 ft | 395 kts | 225° |
| 2026-04-21 18:29 | 49.96072 | -2.14418 | 23030 ft | 384 kts | 233° |
| 2026-04-21 18:30 | 49.94303 | -2.17501 | 22497 ft | 380 kts | 233° |
| 2026-04-21 18:30 | 49.92555 | -2.20564 | 21873 ft | 378 kts | 233° |
| 2026-04-21 18:30 | 49.90820 | -2.23612 | 21268 ft | 375 kts | 233° |
| 2026-04-21 18:30 | 49.89112 | -2.26605 | 20685 ft | 372 kts | 233° |
| 2026-04-21 18:31 | 49.87405 | -2.29585 | 20108 ft | 368 kts | 232° |
| 2026-04-21 18:31 | 49.85702 | -2.32548 | 19547 ft | 366 kts | 232° |
| 2026-04-21 18:31 | 49.84017 | -2.35481 | 18989 ft | 364 kts | 232° |
| 2026-04-21 18:31 | 49.82345 | -2.38387 | 18468 ft | 361 kts | 233° |
| 2026-04-21 18:32 | 49.80668 | -2.41297 | 17838 ft | 358 kts | 233° |
| 2026-04-21 18:32 | 49.79021 | -2.44158 | 17228 ft | 356 kts | 231° |
| 2026-04-21 18:32 | 49.77376 | -2.47002 | 16645 ft | 352 kts | 232° |
| 2026-04-21 18:32 | 49.75736 | -2.49831 | 16043 ft | 349 kts | 232° |
| 2026-04-21 18:33 | 49.74119 | -2.52620 | 15487 ft | 347 kts | 230° |
| 2026-04-21 18:33 | 49.72461 | -2.55324 | 14914 ft | 347 kts | 224° |
| 2026-04-21 18:33 | 49.70493 | -2.57462 | 14350 ft | 347 kts | 211° |
| 2026-04-21 18:33 | 49.68263 | -2.58842 | 13801 ft | 346 kts | 196° |
| 2026-04-21 18:34 | 49.65878 | -2.59389 | 13161 ft | 346 kts | 183° |
| 2026-04-21 18:34 | 49.63515 | -2.59480 | 12597 ft | 343 kts | 182° |
| 2026-04-21 18:34 | 49.61133 | -2.59574 | 12156 ft | 341 kts | 182° |
| 2026-04-21 18:34 | 49.58761 | -2.59676 | 11826 ft | 341 kts | 182° |
| 2026-04-21 18:35 | 49.56397 | -2.59782 | 11495 ft | 335 kts | 181° |
| 2026-04-21 18:35 | 49.54092 | -2.59891 | 11161 ft | 325 kts | 181° |
| 2026-04-21 18:35 | 49.51870 | -2.60001 | 10838 ft | 316 kts | 181° |
| 2026-04-21 18:35 | 49.49694 | -2.60108 | 10530 ft | 309 kts | 180° |
| 2026-04-21 18:36 | 49.47566 | -2.60255 | 10213 ft | 302 kts | 186° |
| 2026-04-21 18:36 | 49.45613 | -2.61300 | 9893 ft | 299 kts | 212° |
| 2026-04-21 18:36 | 49.44179 | -2.63468 | 9549 ft | 297 kts | 238° |
| 2026-04-21 18:36 | 49.43481 | -2.66495 | 9206 ft | 295 kts | 264° |
| 2026-04-21 18:37 | 49.43348 | -2.69632 | 8873 ft | 294 kts | 267° |
| 2026-04-21 18:37 | 49.43234 | -2.72728 | 8563 ft | 293 kts | 267° |
| 2026-04-21 18:37 | 49.43116 | -2.75878 | 8175 ft | 298 kts | 266° |
| 2026-04-21 18:37 | 49.43047 | -2.79060 | 7770 ft | 297 kts | 274° |
| 2026-04-21 18:38 | 49.43487 | -2.82157 | 7374 ft | 298 kts | 294° |
| 2026-04-21 18:38 | 49.44512 | -2.84895 | 6978 ft | 294 kts | 313° |
| 2026-04-21 18:38 | 49.45903 | -2.87181 | 6592 ft | 293 kts | 319° |
| 2026-04-21 18:38 | 49.47315 | -2.89452 | 6174 ft | 293 kts | 316° |
| 2026-04-21 18:39 | 49.48416 | -2.92074 | 5760 ft | 298 kts | 289° |
| 2026-04-21 18:39 | 49.48497 | -2.95211 | 5353 ft | 296 kts | 253° |
| 2026-04-21 18:39 | 49.47510 | -2.97851 | 4976 ft | 277 kts | 216° |
| 2026-04-21 18:39 | 49.45913 | -2.99038 | 4694 ft | 246 kts | 180° |
| 2026-04-21 18:40 | 49.44388 | -2.98542 | 4397 ft | 213 kts | 139° |
| 2026-04-21 18:40 | 49.43412 | -2.97002 | 4112 ft | 193 kts | 120° |
| 2026-04-21 18:40 | 49.42988 | -2.95833 | 3934 ft | 184 kts | 110° |
| 2026-04-21 18:40 | 49.42665 | -2.93328 | 3566 ft | 179 kts | 89° |
| 2026-04-21 18:41 | 49.42717 | -2.91426 | 3289 ft | 177 kts | 89° |
| 2026-04-21 18:41 | 49.42754 | -2.89538 | 3003 ft | 175 kts | 89° |
| 2026-04-21 18:41 | 49.42785 | -2.87691 | 2722 ft | 172 kts | 89° |
| 2026-04-21 18:41 | 49.42816 | -2.85866 | 2437 ft | 170 kts | 89° |
| 2026-04-21 18:42 | 49.42845 | -2.84051 | 2153 ft | 169 kts | 88° |
| 2026-04-21 18:42 | 49.42875 | -2.82265 | 2025 ft | 168 kts | 88° |
| 2026-04-21 18:42 | 49.42917 | -2.80477 | 2010 ft | 166 kts | 88° |
| 2026-04-21 18:42 | 49.42967 | -2.78701 | 2010 ft | 166 kts | 88° |
| 2026-04-21 18:43 | 49.43016 | -2.77037 | 1999 ft | 144 kts | 88° |
| 2026-04-21 18:43 | 49.43057 | -2.75617 | 2021 ft | 126 kts | 88° |
| 2026-04-21 18:43 | 49.43094 | -2.74336 | 1949 ft | 116 kts | 87° |
| 2026-04-21 18:43 | 49.43127 | -2.73164 | 1838 ft | 108 kts | 87° |
| 2026-04-21 18:44 | 49.43161 | -2.71988 | 1712 ft | 115 kts | 86° |
| 2026-04-21 18:44 | 49.43197 | -2.70721 | 1557 ft | 121 kts | 86° |
| 2026-04-21 18:44 | 49.43235 | -2.69410 | 1392 ft | 125 kts | 85° |
| 2026-04-21 18:44 | 49.43273 | -2.68082 | 1213 ft | 125 kts | 85° |
| 2026-04-21 18:45 | 49.43318 | -2.66707 | 1011 ft | 131 kts | 84° |
| 2026-04-21 18:45 | 49.43387 | -2.65300 | 838 ft | 134 kts | 84° |
| 2026-04-21 18:45 | 49.43402 | -2.63886 | 683 ft | 131 kts | 85° |
| 2026-04-21 18:45 | 49.43431 | -2.62451 | 492 ft | 132 kts | 84° |
| 2026-04-21 18:46 | 49.43472 | -2.61073 | 330 ft | 126 kts | 84° |
| 2026-04-21 18:46 | 49.43508 | -2.60004 | 320 ft | 77 kts | 87° |
| 2026-04-21 18:46 | 49.43517 | -2.59626 | 327 ft | 12 kts | 88° |
| 2026-04-21 18:46 | 49.43519 | -2.59422 | 332 ft | 23 kts | 89° |
| 2026-04-21 18:47 | 49.43517 | -2.59239 | 335 ft | 9 kts | 108° |
| 2026-04-21 18:47 | 49.43450 | -2.59198 | 334 ft | 11 kts | 178° |
| 2026-04-21 18:47 | 49.43420 | -2.59196 | 333 ft | 2 kts | 179° |
| 2026-04-21 18:47 | 49.43396 | -2.59206 | 333 ft | 6 kts | 207° |
| 2026-04-21 18:48 | 49.43371 | -2.59281 | 332 ft | 11 kts | 262° |
| 2026-04-21 18:48 | 49.43366 | -2.59426 | 326 ft | 16 kts | 266° |
| 2026-04-21 18:48 | 49.43349 | -2.59564 | 325 ft | 11 kts | 216° |
| 2026-04-21 18:48 | 49.43279 | -2.59563 | 326 ft | 2 kts | 177° |